Time;durP1;ratioP1;P1;durP2;ratioP2;P2;SDS_P1;SDS_P2;PMS_P1;PMS_P2;Temp;Humidity;BMP_temperature;BMP_pressure;BME280_temperature;BME280_humidity;BME280_pressure;Samples;Min_cycle;Max_cycle;Signal;HPM_P1;HPM_P2
2021/03/19 00:01:58;;;;;;;10.23;5.85;;;;;;;3.36;95.95;100502.94;1754975;81;21045;-56
2021/03/19 00:04:26;;;;;;;16.32;6.25;;;;;;;3.31;96.27;100498.13;1771385;81;21068;-56
2021/03/19 00:06:54;;;;;;;18.37;6.47;;;;;;;3.28;96.51;100496.84;1754915;81;21703;-56
2021/03/19 00:09:21;;;;;;;16.52;6.50;;;;;;;3.28;96.69;100505.66;1771361;81;21158;-56
2021/03/19 00:11:50;;;;;;;11.97;5.62;;;;;;;3.26;97.00;100499.95;1755010;81;21128;-57
2021/03/19 00:14:18;;;;;;;8.40;5.65;;;;;;;3.24;97.08;100503.06;1771534;81;21631;-56
2021/03/19 00:16:45;;;;;;;13.40;5.55;;;;;;;3.21;97.18;100495.15;1754964;81;21478;-56
2021/03/19 00:19:13;;;;;;;9.00;5.47;;;;;;;3.20;97.35;100502.20;1771576;81;21208;-56
2021/03/19 00:21:40;;;;;;;12.20;5.62;;;;;;;3.17;97.45;100496.94;1754842;81;21173;-56
2021/03/19 00:24:09;;;;;;;9.85;5.80;;;;;;;3.17;97.64;100502.66;1771527;81;21194;-56
2021/03/19 00:26:36;;;;;;;11.80;5.67;;;;;;;3.13;97.65;100498.72;1754870;81;21592;-56
2021/03/19 00:29:04;;;;;;;11.45;5.85;;;;;;;3.13;97.79;100502.70;1771427;81;21131;-56
2021/03/19 00:31:32;;;;;;;11.03;5.80;;;;;;;3.15;97.83;100503.56;1754831;81;21463;-57
2021/03/19 00:34:00;;;;;;;12.93;6.87;;;;;;;3.17;97.84;100500.02;1771475;81;21016;-57
2021/03/19 00:36:28;;;;;;;11.22;6.00;;;;;;;3.15;97.76;100498.72;1754863;81;21173;-56
2021/03/19 00:38:55;;;;;;;18.42;6.17;;;;;;;3.14;97.75;100500.48;1771401;80;21059;-56
2021/03/19 00:41:23;;;;;;;20.17;5.95;;;;;;;3.13;97.77;100496.07;1754900;81;21049;-56
2021/03/19 00:43:51;;;;;;;11.30;6.40;;;;;;;3.12;97.84;100498.29;1772230;80;21367;-55
2021/03/19 00:46:19;;;;;;;11.60;6.05;;;;;;;3.12;97.89;100494.31;1787047;80;21150;-58
2021/03/19 00:48:48;;;;;;;13.03;6.20;;;;;;;3.11;97.90;100496.53;1786963;80;21194;-56
2021/03/19 00:51:16;;;;;;;11.78;6.05;;;;;;;3.10;97.85;100496.10;1787127;80;21037;-56
2021/03/19 00:53:44;;;;;;;8.88;5.60;;;;;;;3.08;97.78;100487.29;1787108;80;21077;-56
2021/03/19 00:56:11;;;;;;;10.35;6.08;;;;;;;3.07;97.85;100493.91;1787125;80;21340;-56
2021/03/19 00:58:39;;;;;;;11.80;5.58;;;;;;;3.05;97.98;100491.30;1786965;80;21136;-56
2021/03/19 01:01:07;;;;;;;9.18;5.87;;;;;;;3.03;98.04;100491.76;1787138;80;21081;-56
2021/03/19 01:03:35;;;;;;;12.07;6.35;;;;;;;3.00;98.03;100493.11;1786964;80;21060;-56
2021/03/19 01:06:03;;;;;;;9.75;5.70;;;;;;;2.98;98.10;100489.56;1787102;80;21123;-56
2021/03/19 01:08:31;;;;;;;14.70;6.22;;;;;;;2.97;98.23;100493.10;1787050;80;21385;-57
2021/03/19 01:10:58;;;;;;;12.37;6.05;;;;;;;2.95;98.35;100483.86;1787174;80;21182;-57
2021/03/19 01:13:26;;;;;;;10.95;6.03;;;;;;;2.94;98.52;100482.11;1787677;80;21073;-56
2021/03/19 01:15:54;;;;;;;10.05;5.87;;;;;;;2.94;98.66;100482.53;1787586;80;21473;-57
2021/03/19 01:18:27;;;;;;;12.03;6.83;;;;;;;2.92;98.67;100475.05;1787712;80;21104;-57
2021/03/19 01:20:59;;;;;;;10.80;5.87;;;;;;;2.89;98.94;100479.95;1784695;80;21355;-56
2021/03/19 01:23:29;;;;;;;10.53;6.45;;;;;;;2.85;99.35;100477.76;1787578;80;21143;-57
2021/03/19 01:25:57;;;;;;;10.53;6.47;;;;;;;2.83;99.50;100474.25;1787555;80;21086;-56
2021/03/19 01:28:24;;;;;;;11.63;6.60;;;;;;;2.82;99.63;100479.11;1787647;80;21159;-55
2021/03/19 01:30:52;;;;;;;11.97;6.40;;;;;;;2.82;99.77;100479.54;1787579;80;21143;-57
2021/03/19 01:33:20;;;;;;;12.40;6.87;;;;;;;2.81;100.00;100482.65;1787651;80;21361;-56
2021/03/19 01:35:48;;;;;;;12.28;7.12;;;;;;;2.79;100.00;100472.95;1787567;80;21586;-56
2021/03/19 01:38:16;;;;;;;11.30;6.67;;;;;;;2.76;100.00;100476.48;1787619;80;21092;-56
2021/03/19 01:40:47;;;;;;;12.40;7.15;;;;;;;2.76;100.00;100480.45;1787630;80;21048;-56
2021/03/19 01:43:34;;;;;;;11.15;7.35;;;;;;;2.77;100.00;100482.24;1787602;80;21164;-56
2021/03/19 01:46:41;;;;;;;14.20;7.70;;;;;;;2.80;100.00;100480.89;1758712;81;21205;-56
2021/03/19 01:50:05;;;;;;;12.18;6.83;;;;;;;2.80;100.00;100488.84;1758533;81;21605;-56
2021/03/19 01:53:29;;;;;;;13.72;6.80;;;;;;;2.82;100.00;100494.10;1758575;81;21118;-56
2021/03/19 01:56:53;;;;;;;13.15;7.97;;;;;;;2.81;100.00;100496.31;1758625;81;21053;-57
2021/03/19 02:00:17;;;;;;;13.35;7.22;;;;;;;2.81;100.00;100499.86;1758652;81;21120;-57
2021/03/19 02:03:41;;;;;;;13.80;7.28;;;;;;;2.80;100.00;100500.75;1758599;81;21456;-56
2021/03/19 02:07:05;;;;;;;11.73;7.03;;;;;;;2.80;100.00;100503.83;1758513;81;21140;-56
2021/03/19 02:10:29;;;;;;;12.75;7.20;;;;;;;2.77;100.00;100512.69;1758549;81;21109;-56
2021/03/19 02:13:57;;;;;;;11.43;6.78;;;;;;;2.73;100.00;100509.61;1758587;81;21156;-57
2021/03/19 02:17:21;;;;;;;12.82;7.35;;;;;;;2.69;100.00;100514.48;1758656;81;21049;-57
2021/03/19 02:20:45;;;;;;;12.15;7.35;;;;;;;2.69;100.00;100525.97;1758535;81;21156;-57
2021/03/19 02:24:09;;;;;;;15.00;7.03;;;;;;;2.69;100.00;100519.78;1758489;81;21077;-56
2021/03/19 02:27:35;;;;;;;12.47;7.12;;;;;;;2.68;100.00;100518.92;1758576;81;20994;-57
2021/03/19 02:30:59;;;;;;;11.88;6.95;;;;;;;2.66;100.00;100522.45;1758499;81;21128;-56
2021/03/19 02:33:28;;;;;;;12.85;6.90;;;;;;;2.64;100.00;100522.45;1758589;81;21623;-56
2021/03/19 02:35:58;;;;;;;15.13;7.65;;;;;;;2.62;100.00;100527.34;1758676;81;21080;-56
2021/03/19 02:38:27;;;;;;;12.37;7.08;;;;;;;2.62;100.00;100528.20;1758465;81;21101;-56
2021/03/19 02:40:54;;;;;;;14.68;7.87;;;;;;;2.61;100.00;100533.52;1758570;81;21061;-56
2021/03/19 02:43:23;;;;;;;14.55;8.18;;;;;;;2.60;100.00;100535.73;1758495;81;21148;-56
2021/03/19 02:45:51;;;;;;;13.20;8.73;;;;;;;2.60;100.00;100542.35;1788313;80;21109;-56
2021/03/19 02:48:18;;;;;;;10.15;6.45;;;;;;;2.60;100.00;100539.70;1789912;80;21343;-56
2021/03/19 02:50:46;;;;;;;12.53;7.20;;;;;;;2.57;100.00;100545.45;1790052;79;21192;-57
2021/03/19 02:53:21;;;;;;;12.63;7.87;;;;;;;2.58;100.00;100541.02;1790074;80;21156;-56
2021/03/19 02:55:48;;;;;;;12.78;7.70;;;;;;;2.59;100.00;100545.42;1790066;80;21152;-56
2021/03/19 02:58:17;;;;;;;12.15;7.70;;;;;;;2.61;100.00;100545.43;1790040;79;21054;-56
2021/03/19 03:00:44;;;;;;;12.05;7.62;;;;;;;2.61;100.00;100542.78;1789883;80;21364;-56
2021/03/19 03:03:14;;;;;;;13.18;7.47;;;;;;;2.61;100.00;100545.43;1789910;80;21053;-56
2021/03/19 03:05:42;;;;;;;14.80;7.78;;;;;;;2.61;100.00;100548.94;1789904;80;21136;-56
2021/03/19 03:08:12;;;;;;;13.70;7.67;;;;;;;2.62;100.00;100545.87;1789968;80;21105;-56
2021/03/19 03:10:40;;;;;;;12.95;7.72;;;;;;;2.63;100.00;100549.81;1789671;79;21565;-56
2021/03/19 03:13:08;;;;;;;14.20;8.05;;;;;;;2.64;100.00;100553.35;1786629;80;21496;-56
2021/03/19 03:15:37;;;;;;;15.48;8.73;;;;;;;2.63;100.00;100551.59;1786605;80;21474;-56
2021/03/19 03:18:05;;;;;;;15.30;8.28;;;;;;;2.62;100.00;100552.02;1786638;80;21141;-56
2021/03/19 03:20:38;;;;;;;14.13;8.08;;;;;;;2.60;100.00;100548.97;1786576;80;21097;-56
2021/03/19 03:23:07;;;;;;;15.08;8.13;;;;;;;2.60;100.00;100548.97;1786577;80;21046;-56
2021/03/19 03:25:36;;;;;;;12.65;7.75;;;;;;;2.56;100.00;100543.70;1786595;80;21365;-56
2021/03/19 03:28:05;;;;;;;12.85;8.55;;;;;;;2.56;100.00;100548.09;1786501;80;21058;-56
2021/03/19 03:30:38;;;;;;;16.48;9.15;;;;;;;2.52;100.00;100547.22;1786527;80;21125;-56
2021/03/19 03:33:06;;;;;;;13.38;7.78;;;;;;;2.50;100.00;100546.35;1786397;80;21077;-56
2021/03/19 03:35:34;;;;;;;13.55;8.00;;;;;;;2.47;100.00;100539.75;1786712;80;21239;-56
2021/03/19 03:38:05;;;;;;;14.23;7.25;;;;;;;2.46;100.00;100547.72;1786608;80;22394;-56
2021/03/19 03:40:40;;;;;;;14.07;8.18;;;;;;;2.44;100.00;100549.03;1786586;80;21137;-56
2021/03/19 03:43:08;;;;;;;12.80;7.75;;;;;;;2.43;100.00;100541.98;1786627;80;21045;-56
2021/03/19 03:45:37;;;;;;;11.75;7.28;;;;;;;2.41;100.00;100544.63;1746543;80;21118;-55
2021/03/19 03:48:06;;;;;;;13.00;7.47;;;;;;;2.41;100.00;100551.70;1739850;82;21057;-56
2021/03/19 03:50:34;;;;;;;13.93;8.53;;;;;;;2.41;100.00;100549.05;1739770;82;21502;-57
2021/03/19 03:53:06;;;;;;;14.50;7.75;;;;;;;2.40;100.00;100551.27;1739562;82;21499;-56
2021/03/19 03:55:35;;;;;;;16.87;7.67;;;;;;;2.41;100.00;100555.67;1739552;82;21134;-57
2021/03/19 03:58:03;;;;;;;13.72;8.45;;;;;;;2.41;100.00;100556.98;1739754;82;21161;-56
2021/03/19 04:00:31;;;;;;;13.28;8.35;;;;;;;2.43;100.00;100557.86;1739737;82;21117;-56
2021/03/19 04:03:04;;;;;;;15.30;8.75;;;;;;;2.48;100.00;100566.66;1739748;82;21366;-57
2021/03/19 04:05:43;;;;;;;12.50;8.00;;;;;;;2.49;100.00;100563.12;1739682;82;21085;-57
2021/03/19 04:08:14;;;;;;;13.00;9.03;;;;;;;2.51;100.00;100569.28;1739730;82;21140;-56
2021/03/19 04:10:43;;;;;;;13.15;8.00;;;;;;;2.49;100.00;100567.09;1739587;82;21156;-57
2021/03/19 04:13:11;;;;;;;15.75;8.38;;;;;;;2.49;100.00;100565.77;1735526;79;21149;-57
2021/03/19 04:15:40;;;;;;;17.73;8.60;;;;;;;2.49;100.00;100572.38;1719992;83;21376;-56
2021/03/19 04:18:11;;;;;;;12.40;7.97;;;;;;;2.51;100.00;100579.87;1719848;83;21102;-56
2021/03/19 04:20:40;;;;;;;14.90;8.33;;;;;;;2.51;100.00;100576.36;1719977;83;21193;-56
2021/03/19 04:23:09;;;;;;;13.20;8.33;;;;;;;2.51;100.00;100571.06;1716994;83;21189;-56
2021/03/19 04:25:39;;;;;;;14.75;8.45;;;;;;;2.51;100.00;100577.22;1719956;83;21194;-56
2021/03/19 04:28:10;;;;;;;13.55;8.35;;;;;;;2.51;100.00;100579.87;1719983;83;21437;-56
2021/03/19 04:30:41;;;;;;;15.93;8.90;;;;;;;2.54;100.00;100580.31;1719855;83;21098;-56
2021/03/19 04:33:12;;;;;;;14.10;8.85;;;;;;;2.57;100.00;100581.61;1735046;82;21085;-56
2021/03/19 04:35:41;;;;;;;15.13;10.03;;;;;;;2.58;100.00;100584.27;1734892;82;21128;-56
2021/03/19 04:38:13;;;;;;;15.50;8.63;;;;;;;2.58;100.00;100584.27;1735055;82;21157;-56
2021/03/19 04:40:42;;;;;;;14.45;8.78;;;;;;;2.61;100.00;100582.48;1734999;82;21367;-56
2021/03/19 04:43:11;;;;;;;14.70;8.75;;;;;;;2.62;100.00;100581.60;1734924;82;21216;-56
2021/03/19 04:45:40;;;;;;;15.00;9.33;;;;;;;2.63;100.00;100579.39;1733582;81;21130;-57
2021/03/19 04:48:08;;;;;;;13.40;8.93;;;;;;;2.65;100.00;100578.94;1765408;81;21082;-57
2021/03/19 04:50:36;;;;;;;11.43;8.35;;;;;;;2.66;100.00;100578.94;1765316;81;21057;-57
2021/03/19 04:53:04;;;;;;;11.60;7.35;;;;;;;2.66;100.00;100587.31;1765346;81;21383;-57
2021/03/19 04:55:33;;;;;;;12.73;7.75;;;;;;;2.67;100.00;100580.70;1765346;81;21105;-57
2021/03/19 04:58:01;;;;;;;14.38;8.20;;;;;;;2.67;100.00;100583.77;1765313;81;21141;-57
2021/03/19 05:00:29;;;;;;;11.08;7.83;;;;;;;2.68;100.00;100586.86;1765436;81;21165;-57
2021/03/19 05:02:57;;;;;;;14.23;8.10;;;;;;;2.70;100.00;100589.05;1765329;81;21078;-56
2021/03/19 05:05:29;;;;;;;11.65;7.80;;;;;;;2.72;100.00;100587.27;1765426;81;21711;-57
2021/03/19 05:07:58;;;;;;;11.57;7.22;;;;;;;2.74;100.00;100589.46;1765296;81;21098;-57
2021/03/19 05:10:30;;;;;;;14.47;7.70;;;;;;;2.75;100.00;100583.28;1765367;81;21181;-57
2021/03/19 05:12:59;;;;;;;14.18;8.33;;;;;;;2.78;100.00;100589.02;1774169;80;21075;-56
2021/03/19 05:15:28;;;;;;;13.43;7.95;;;;;;;2.83;100.00;100590.76;1754899;81;21045;-56
2021/03/19 05:17:57;;;;;;;13.65;8.68;;;;;;;2.85;100.00;100583.68;1771359;81;21318;-56
2021/03/19 05:20:26;;;;;;;16.23;8.60;;;;;;;2.90;100.00;100593.36;1754738;81;21506;-56
2021/03/19 05:22:53;;;;;;;14.80;8.25;;;;;;;2.90;100.00;100591.61;1771393;81;21071;-57
2021/03/19 05:25:25;;;;;;;12.80;8.10;;;;;;;2.93;100.00;100597.31;1754761;81;21129;-57
2021/03/19 05:27:55;;;;;;;13.05;7.67;;;;;;;2.98;100.00;100599.48;1771043;81;21178;-57
2021/03/19 05:30:23;;;;;;;14.00;8.40;;;;;;;3.03;100.00;100599.03;1754902;81;21415;-57
2021/03/19 05:32:52;;;;;;;13.13;7.72;;;;;;;3.05;100.00;100603.88;1771434;81;21583;-57
2021/03/19 05:35:21;;;;;;;10.48;7.30;;;;;;;3.07;100.00;100609.14;1754799;81;21114;-58
2021/03/19 05:37:50;;;;;;;11.95;6.65;;;;;;;3.07;100.00;100608.71;1771356;81;21190;-58
2021/03/19 05:40:32;;;;;;;10.48;6.78;;;;;;;3.10;100.00;100612.66;1754810;81;21089;-58
2021/03/19 05:43:26;;;;;;;10.93;6.92;;;;;;;3.13;100.00;100617.08;1771329;81;21674;-56
2021/03/19 05:46:08;;;;;;;9.83;6.50;;;;;;;3.17;100.00;100625.86;1756290;81;21160;-57
2021/03/19 05:48:44;;;;;;;10.78;6.70;;;;;;;3.19;100.00;100623.65;1776795;80;21127;-57
2021/03/19 05:51:23;;;;;;;12.60;6.97;;;;;;;3.23;100.00;100628.03;1756728;81;21002;-58
2021/03/19 05:53:57;;;;;;;10.80;6.53;;;;;;;3.29;100.00;100629.77;1776794;80;21119;-57
2021/03/19 05:56:28;;;;;;;7.90;5.55;;;;;;;3.34;100.00;100635.91;1756944;81;22344;-59
2021/03/19 05:58:57;;;;;;;10.15;6.47;;;;;;;3.35;99.75;100641.64;1776757;80;21076;-57
2021/03/19 06:01:26;;;;;;;9.63;6.25;;;;;;;3.36;99.67;100639.42;1776773;80;20917;-58
2021/03/19 06:03:57;;;;;;;11.95;6.22;;;;;;;3.36;99.04;100647.84;1756693;81;21062;-57
2021/03/19 06:06:46;;;;;;;14.85;7.05;;;;;;;3.36;98.96;100650.03;1776931;80;21190;-57
2021/03/19 06:09:36;;;;;;;12.13;6.70;;;;;;;3.40;98.74;100661.50;1756785;81;21485;-56
2021/03/19 06:12:14;;;;;;;10.72;6.92;;;;;;;3.40;98.56;100658.84;1780348;80;21220;-56
2021/03/19 06:14:50;;;;;;;12.55;7.03;;;;;;;3.46;98.77;100656.14;1762002;81;21128;-56
2021/03/19 06:17:37;;;;;;;10.98;6.50;;;;;;;3.53;98.63;100672.89;1762383;81;21152;-58
2021/03/19 06:20:10;;;;;;;14.30;7.60;;;;;;;3.60;98.40;100677.25;1793758;80;21166;-57
2021/03/19 06:22:59;;;;;;;13.83;7.62;;;;;;;3.67;98.37;100671.03;1762456;81;21509;-57
2021/03/19 06:25:42;;;;;;;9.43;6.65;;;;;;;3.76;98.01;100678.47;1773849;80;21063;-56
2021/03/19 06:28:38;;;;;;;10.65;6.90;;;;;;;3.81;97.42;100677.98;1762509;81;21151;-56
2021/03/19 06:31:28;;;;;;;;;;;;;;;3.85;96.69;100683.69;1796517;80;21046;-58
2021/03/19 06:34:13;;;;;;;13.03;7.03;;;;;;;3.90;96.44;100683.23;1793896;80;20212;-57
2021/03/19 06:36:52;;;;;;;12.33;7.53;;;;;;;3.94;95.70;100688.93;1761865;81;21709;-57
2021/03/19 06:39:27;;;;;;;11.95;6.92;;;;;;;3.99;95.68;100693.74;1793852;80;21071;-57
2021/03/19 06:42:13;;;;;;;;;;;;;;;4.04;95.47;100692.81;1765155;81;20904;-57
2021/03/19 06:44:41;;;;;;;13.03;7.37;;;;;;;4.08;95.17;100683.93;1768918;80;20226;-57
2021/03/19 06:47:15;;;;;;;14.40;7.25;;;;;;;4.09;94.38;100683.03;1763520;81;21052;-56
2021/03/19 06:49:53;;;;;;;7.45;5.35;;;;;;;4.09;94.24;100685.69;1769399;80;21139;-57
2021/03/19 06:52:26;;;;;;;14.55;8.03;;;;;;;4.11;94.24;100689.23;1769242;80;21559;-57
2021/03/19 06:54:59;;;;;;;12.50;7.85;;;;;;;4.18;94.35;100692.26;1769232;81;21222;-58
2021/03/19 06:57:31;;;;;;;14.18;8.28;;;;;;;4.23;94.20;100696.20;1759082;80;21478;-58
2021/03/19 07:00:02;;;;;;;14.30;8.25;;;;;;;4.24;93.76;100688.67;1762703;81;21222;-57
2021/03/19 07:02:53;;;;;;;16.10;8.55;;;;;;;4.27;93.26;100694.81;1755789;81;21712;-57
2021/03/19 07:06:02;;;;;;;16.27;7.72;;;;;;;4.29;92.93;100693.02;1764012;81;21163;-57
2021/03/19 07:09:02;;;;;;;15.78;8.48;;;;;;;4.35;92.65;100693.88;1749108;81;21551;-56
2021/03/19 07:11:54;;;;;;;14.45;7.15;;;;;;;4.41;92.35;100699.11;1759826;80;21144;-57
2021/03/19 07:14:30;;;;;;;13.48;7.62;;;;;;;4.46;92.30;100699.94;1766231;80;21117;-57
2021/03/19 07:17:14;;;;;;;13.03;7.65;;;;;;;4.54;92.06;100702.52;1786911;80;21192;-57
2021/03/19 07:20:16;;;;;;;14.87;8.20;;;;;;;4.61;92.10;100696.70;1786799;80;21585;-59
2021/03/19 07:23:16;;;;;;;15.95;7.97;;;;;;;4.62;91.22;100701.11;1772884;80;21208;-57
2021/03/19 07:26:11;;;;;;;16.12;8.13;;;;;;;4.56;90.65;100708.25;1755491;81;21155;-58
2021/03/19 07:29:13;;;;;;;13.78;7.35;;;;;;;4.56;90.82;100712.23;1755350;81;21140;-57
2021/03/19 07:32:20;;;;;;;16.27;8.68;;;;;;;4.64;90.54;100714.81;1755257;81;21217;-57
2021/03/19 07:34:56;;;;;;;17.65;7.97;;;;;;;4.67;89.82;100704.59;1755469;81;21085;-57
2021/03/19 07:38:15;;;;;;;12.43;8.05;;;;;;;4.72;89.40;100710.72;1755728;81;21093;-57
2021/03/19 07:41:00;;;;;;;12.73;7.67;;;;;;;4.72;89.35;100710.72;1729641;81;21144;-57
2021/03/19 07:43:46;;;;;;;14.73;7.92;;;;;;;4.75;89.31;100710.67;1755812;81;21053;-56
2021/03/19 07:46:44;;;;;;;16.73;7.37;;;;;;;4.79;89.64;100711.09;1755516;81;21202;-56
2021/03/19 07:49:20;;;;;;;12.70;7.28;;;;;;;4.82;89.76;100704.41;1742651;81;21175;-57
2021/03/19 07:52:11;;;;;;;13.48;7.20;;;;;;;4.84;89.63;100705.27;1753338;81;21096;-58
2021/03/19 07:55:06;;;;;;;13.62;7.05;;;;;;;4.88;89.59;100699.48;1755669;81;21105;-57
2021/03/19 07:57:53;;;;;;;13.22;7.40;;;;;;;4.94;89.12;100710.03;1755745;81;21124;-57
2021/03/19 08:00:29;;;;;;;12.25;7.05;;;;;;;4.94;88.38;100705.15;1755609;81;21707;-57
2021/03/19 08:03:11;;;;;;;13.85;7.37;;;;;;;4.92;89.16;100702.53;1755452;81;21102;-56
2021/03/19 08:05:51;;;;;;;13.83;7.67;;;;;;;4.97;89.25;100702.45;1755704;81;21172;-57
2021/03/19 08:08:54;;;;;;;15.23;8.28;;;;;;;4.95;88.79;100698.94;1755643;81;21179;-57
2021/03/19 08:11:42;;;;;;;16.97;7.58;;;;;;;4.93;89.32;100700.73;1733541;81;21192;-55
2021/03/19 08:14:53;;;;;;;15.85;7.97;;;;;;;5.07;88.75;100700.55;1750961;81;21157;-56
2021/03/19 08:18:03;;;;;;;15.75;7.62;;;;;;;5.07;88.75;100700.55;1724898;82;21145;-57
2021/03/19 08:21:15;;;;;;;18.37;9.33;;;;;;;5.14;87.81;100708.43;1758229;81;21052;-57
2021/03/19 08:24:13;;;;;;;11.00;7.75;;;;;;;5.27;87.67;100708.28;1758197;81;21159;-57
2021/03/19 08:26:52;;;;;;;21.50;9.15;;;;;;;5.34;85.74;100708.62;1750073;82;21093;-56
2021/03/19 08:29:26;;;;;;;15.83;8.00;;;;;;;5.32;85.70;100710.89;1757917;81;21401;-56
2021/03/19 08:32:18;;;;;;;17.17;8.25;;;;;;;5.30;85.98;100711.79;1758062;80;21064;-55
2021/03/19 08:35:23;;;;;;;13.43;8.08;;;;;;;5.31;86.04;100712.66;1746787;80;21123;-56
2021/03/19 08:38:08;;;;;;;15.72;8.30;;;;;;;5.35;85.13;100709.52;1763370;80;21136;-57
2021/03/19 08:41:21;;;;;;;13.15;7.87;;;;;;;5.49;84.58;100710.64;1762673;80;21489;-57
2021/03/19 08:43:55;;;;;;;15.45;9.40;;;;;;;5.63;83.99;100707.30;1739133;81;22840;-57
2021/03/19 08:46:39;;;;;;;19.62;8.95;;;;;;;5.69;82.88;100712.98;1756530;81;21213;-57
2021/03/19 08:49:26;;;;;;;;;;;;;;;5.72;82.44;100716.92;1759098;81;21071;-57
2021/03/19 08:51:55;;;;;;;15.03;8.75;;;;;;;5.76;81.88;100711.12;1787250;80;20268;-57
2021/03/19 08:54:31;;;;;;;25.72;11.35;;;;;;;5.76;81.99;100717.77;1770537;81;21143;-57
2021/03/19 08:57:13;;;;;;;17.20;9.80;;;;;;;5.86;82.03;100716.27;1756732;81;21213;-58
2021/03/19 08:59:48;;;;;;;18.17;8.88;;;;;;;5.94;81.30;100716.15;1756549;81;21180;-57
2021/03/19 09:02:40;;;;;;;21.48;10.05;;;;;;;6.02;79.56;100714.27;1756751;81;21053;-57
2021/03/19 09:05:25;;;;;;;15.95;9.20;;;;;;;6.04;78.77;100711.59;1776872;80;21480;-57
2021/03/19 09:08:16;;;;;;;16.50;9.50;;;;;;;6.04;78.18;100711.59;1776957;80;21119;-57
2021/03/19 09:10:50;;;;;;;17.90;9.68;;;;;;;6.15;78.62;100711.41;1756504;81;21204;-56
2021/03/19 09:13:20;;;;;;;15.03;8.15;;;;;;;6.21;78.24;100711.29;1780916;80;21916;-56
2021/03/19 09:15:55;;;;;;;19.45;9.20;;;;;;;6.16;78.24;100706.51;1762265;81;21164;-57
2021/03/19 09:18:47;;;;;;;17.92;9.03;;;;;;;6.15;78.82;100712.73;1769718;80;21124;-57
2021/03/19 09:21:31;;;;;;;17.57;9.00;;;;;;;6.25;79.21;100717.45;1764288;78;21051;-56
2021/03/19 09:24:06;;;;;;;17.73;8.90;;;;;;;6.37;78.55;100709.70;1780356;80;21372;-57
2021/03/19 09:26:42;;;;;;;19.95;10.10;;;;;;;6.45;77.86;100715.31;1763738;80;21160;-56
2021/03/19 09:29:21;;;;;;;17.32;8.85;;;;;;;6.44;77.62;100714.88;1773164;80;21153;-57
2021/03/19 09:31:50;;;;;;;13.85;7.75;;;;;;;6.54;76.87;100711.59;1785444;80;21042;-57
2021/03/19 09:34:22;;;;;;;14.25;7.78;;;;;;;6.61;75.71;100715.47;1770375;80;22717;-57
2021/03/19 09:37:13;;;;;;;16.67;8.28;;;;;;;6.61;74.81;100711.47;1763863;81;21983;-58
2021/03/19 09:40:10;;;;;;;20.48;8.00;;;;;;;6.58;74.48;100713.30;1764617;80;21122;-57
2021/03/19 09:42:48;;;;;;;20.15;7.90;;;;;;;6.62;73.94;100715.42;1762936;80;21522;-57
2021/03/19 09:45:22;;;;;;;15.28;7.83;;;;;;;6.56;74.29;100715.11;1762688;81;21111;-57
2021/03/19 09:47:57;;;;;;;14.50;8.25;;;;;;;6.55;75.09;100720.02;1795408;79;21154;-57
2021/03/19 09:50:31;;;;;;;21.02;8.38;;;;;;;6.64;76.02;100716.73;1784632;79;22239;-56
2021/03/19 09:53:12;;;;;;;13.35;7.85;;;;;;;6.68;75.27;100717.09;1768699;80;21633;-56
2021/03/19 09:58:49;;;;;;;19.10;8.03;;;;;;;6.72;74.65;100712.13;1872527;76;23719;-57
2021/03/19 10:01:41;;;;;;;19.98;8.05;;;;;;;6.72;74.65;100712.13;1840503;77;21005;-57
2021/03/19 10:04:15;;;;;;;20.25;8.33;;;;;;;6.75;73.95;100713.42;1840684;78;21179;-57
2021/03/19 10:06:52;;;;;;;16.75;8.33;;;;;;;6.71;73.66;100713.93;1839255;78;21124;-57
2021/03/19 10:09:26;;;;;;;13.70;7.28;;;;;;;6.76;73.72;100712.52;1828708;78;21004;-57
2021/03/19 10:12:03;;;;;;;14.38;7.83;;;;;;;6.81;73.12;100721.29;1826051;77;21171;-57
2021/03/19 10:14:38;;;;;;;29.60;9.60;;;;;;;6.75;73.01;100722.75;1807487;79;20953;-57
2021/03/19 10:17:23;;;;;;;19.85;9.10;;;;;;;6.70;73.69;100725.94;1810566;78;21450;-56
2021/03/19 10:19:59;;;;;;;18.50;9.40;;;;;;;6.69;73.67;100725.52;1757680;81;21044;-57
2021/03/19 10:22:41;;;;;;;19.55;9.63;;;;;;;6.82;74.90;100719.05;1752410;80;21204;-57
2021/03/19 10:25:31;;;;;;;27.35;9.55;;;;;;;6.92;75.21;100722.84;1757752;80;21466;-57
2021/03/19 10:28:19;;;;;;;19.70;10.23;;;;;;;6.91;74.80;100719.76;1700900;83;21141;-58
2021/03/19 10:31:02;;;;;;;25.10;10.93;;;;;;;6.84;75.67;100724.33;1761544;80;21365;-56
2021/03/19 10:34:03;;;;;;;17.42;9.83;;;;;;;6.69;76.26;100718.41;1752492;80;21180;-56
2021/03/19 10:36:44;;;;;;;15.95;9.60;;;;;;;6.54;77.43;100724.92;1732166;81;21178;-57
2021/03/19 10:39:35;;;;;;;18.02;9.20;;;;;;;6.40;77.77;100717.63;1762676;80;21162;-58
2021/03/19 10:42:34;;;;;;;16.20;9.23;;;;;;;6.33;78.26;100715.98;1764445;78;21116;-57
2021/03/19 10:45:29;;;;;;;16.30;8.80;;;;;;;6.25;79.22;100711.66;1774738;80;21535;-57
2021/03/19 10:48:25;;;;;;;21.52;8.28;;;;;;;6.11;79.94;100719.89;1770192;80;21169;-56
2021/03/19 10:51:17;;;;;;;16.73;8.03;;;;;;;5.97;81.95;100717.89;1751924;81;21545;-57
2021/03/19 10:53:58;;;;;;;16.87;9.25;;;;;;;5.82;83.28;100722.98;1758261;80;21541;-57
2021/03/19 10:56:27;;;;;;;20.27;10.00;;;;;;;5.62;84.63;100719.31;1742288;80;21040;-56
2021/03/19 10:59:12;;;;;;;18.30;9.00;;;;;;;5.50;85.38;100715.05;1780739;79;21194;-57
2021/03/19 11:01:45;;;;;;;19.55;8.80;;;;;;;5.42;86.80;100716.48;1781835;79;21568;-57
2021/03/19 11:04:38;;;;;;;16.15;8.85;;;;;;;5.42;86.80;100716.48;1782085;79;21193;-57
2021/03/19 11:07:26;;;;;;;14.65;8.38;;;;;;;5.37;87.44;100715.69;1787241;79;21255;-57
2021/03/19 11:10:41;;;;;;;18.55;9.48;;;;;;;5.30;88.12;100710.89;1782495;78;21565;-57
2021/03/19 11:13:17;;;;;;;20.25;9.68;;;;;;;5.22;88.79;100716.77;1762560;81;21363;-57
2021/03/19 11:15:53;;;;;;;17.30;9.38;;;;;;;5.10;89.68;100714.69;1774730;79;21174;-57
2021/03/19 11:18:36;;;;;;;18.00;9.45;;;;;;;5.00;91.05;100715.25;1793354;79;21488;-57
2021/03/19 11:21:16;;;;;;;20.82;9.58;;;;;;;4.91;91.98;100710.50;1795236;80;21105;-57
2021/03/19 11:23:49;;;;;;;17.23;9.03;;;;;;;4.81;92.52;100714.61;1790930;80;21122;-57
2021/03/19 11:26:29;;;;;;;19.50;8.40;;;;;;;4.79;93.12;100712.42;1795737;78;21352;-57
2021/03/19 11:29:19;;;;;;;18.65;9.15;;;;;;;4.79;93.20;100709.77;1748916;80;21180;-57
2021/03/19 11:32:18;;;;;;;19.40;9.83;;;;;;;4.82;93.07;100707.07;1778107;80;21172;-58
2021/03/19 11:34:54;;;;;;;22.40;9.43;;;;;;;4.83;92.73;100703.95;1786930;79;21129;-57
2021/03/19 11:37:28;;;;;;;21.77;8.98;;;;;;;4.77;92.55;100699.61;1777344;80;21188;-57
2021/03/19 11:40:18;;;;;;;22.22;9.63;;;;;;;4.82;92.79;100702.19;1754686;81;21203;-57
2021/03/19 11:42:52;;;;;;;21.23;9.63;;;;;;;4.89;92.55;100695.93;1765397;78;21156;-56
2021/03/19 11:45:37;;;;;;;19.82;10.18;;;;;;;5.02;92.60;100692.66;1777845;80;21081;-57
2021/03/19 11:48:16;;;;;;;19.50;10.28;;;;;;;5.13;92.16;100691.20;1784714;80;21165;-57
2021/03/19 11:50:51;;;;;;;18.87;9.35;;;;;;;5.30;91.80;100695.84;1774245;78;21129;-57
2021/03/19 11:53:26;;;;;;;16.27;9.45;;;;;;;5.50;91.64;100694.64;1781031;80;21366;-57
2021/03/19 11:55:56;;;;;;;;;;;;;;;5.68;91.03;100696.16;1777128;80;21141;-57
2021/03/19 11:58:28;;;;;;;15.45;9.18;;;;;;;5.82;90.21;100701.27;1756711;79;20245;-57
2021/03/19 12:00:56;;;;;;;22.95;8.93;;;;;;;5.94;89.75;100701.52;1753521;80;21164;-57
2021/03/19 12:03:38;;;;;;;29.07;8.78;;;;;;;6.02;88.49;100696.96;1755989;80;21156;-57
2021/03/19 12:06:08;;;;;;;21.60;9.53;;;;;;;6.06;87.28;100699.56;1763992;79;21686;-57
2021/03/19 12:08:38;;;;;;;15.83;8.33;;;;;;;6.06;86.54;100699.13;1769148;79;21164;-57
2021/03/19 12:11:10;;;;;;;27.90;10.88;;;;;;;6.08;86.35;100696.42;1741034;81;21104;-49
2021/03/19 12:13:38;;;;;;;18.67;9.13;;;;;;;6.09;85.68;100697.74;1755536;80;21409;-50
2021/03/19 12:16:06;;;;;;;23.83;8.85;;;;;;;6.09;85.68;100697.74;1777728;80;21110;-50
2021/03/19 12:18:34;;;;;;;15.08;9.98;;;;;;;6.10;85.42;100694.64;1781214;80;21371;-50
2021/03/19 12:21:02;;;;;;;17.50;8.58;;;;;;;6.02;85.18;100695.63;1778866;80;21165;-49
2021/03/19 12:23:29;;;;;;;19.35;8.20;;;;;;;5.96;85.08;100694.81;1767017;80;21116;-49